Time;durP1;ratioP1;P1;durP2;ratioP2;P2;SDS_P1;SDS_P2;PMS_P1;PMS_P2;Temp;Humidity;BMP_temperature;BMP_pressure;BME280_temperature;BME280_humidity;BME280_pressure;Samples;Min_cycle;Max_cycle;Signal;HPM_P1;HPM_P2
2022/08/24 00:01:21;;;;;;;3.10;2.93;;;27.80;59.90;;;;;;5054084;28;20810;-69
2022/08/24 00:03:51;;;;;;;3.27;3.07;;;27.80;60.00;;;;;;5052261;28;20517;-69
2022/08/24 00:06:25;;;;;;;3.53;3.33;;;27.80;60.00;;;;;;5051288;28;20443;-69
2022/08/24 00:08:55;;;;;;;3.00;2.80;;;27.80;60.00;;;;;;5034738;28;20427;-69
2022/08/24 00:11:23;;;;;;;2.80;2.70;;;27.70;60.00;;;;;;5048071;28;20479;-68
2022/08/24 00:13:52;;;;;;;3.13;2.93;;;27.80;60.00;;;;;;5034580;28;20443;-69
2022/08/24 00:16:21;;;;;;;3.50;3.23;;;27.70;60.10;;;;;;5034054;28;20467;-68
2022/08/24 00:18:51;;;;;;;3.43;3.23;;;27.70;60.10;;;;;;5034080;28;20461;-69
2022/08/24 00:21:19;;;;;;;3.37;3.17;;;27.70;60.10;;;;;;5037057;28;20428;-69
2022/08/24 00:23:48;;;;;;;3.50;3.30;;;27.70;60.10;;;;;;5071518;28;20540;-69
2022/08/24 00:26:17;;;;;;;3.23;3.10;;;27.70;60.10;;;;;;5034305;28;20456;-70
2022/08/24 00:28:56;;;;;;;3.50;3.30;;;27.70;60.10;;;;;;5037358;28;20457;-68
2022/08/24 00:31:25;;;;;;;3.53;3.33;;;27.70;60.10;;;;;;5054058;28;20504;-68
2022/08/24 00:33:55;;;;;;;3.60;3.40;;;27.70;60.20;;;;;;5037770;28;20448;-69
2022/08/24 00:36:24;;;;;;;3.40;3.20;;;27.70;60.20;;;;;;5054093;28;20455;-69
2022/08/24 00:38:53;;;;;;;3.77;3.57;;;27.70;60.20;;;;;;5067979;28;20557;-68
2022/08/24 00:41:22;;;;;;;3.27;3.07;;;27.70;60.20;;;;;;5064309;28;20454;-69
2022/08/24 00:43:54;;;;;;;3.50;3.30;;;27.70;60.20;;;;;;5051942;28;20509;-69
2022/08/24 00:46:26;;;;;;;3.73;3.53;;;27.70;60.20;;;;;;5078523;28;20457;-69
2022/08/24 00:49:02;;;;;;;3.20;3.03;;;27.70;60.20;;;;;;5071731;28;20932;-69
2022/08/24 00:51:37;;;;;;;3.40;3.20;;;27.60;60.30;;;;;;5073377;28;20452;-71
2022/08/24 00:54:11;;;;;;;4.13;3.93;;;27.60;60.30;;;;;;5036060;28;21168;-69
2022/08/24 00:56:43;;;;;;;3.50;3.30;;;27.60;60.30;;;;;;5063373;28;20460;-70
2022/08/24 00:59:15;;;;;;;3.47;3.27;;;27.60;60.30;;;;;;5043943;28;21015;-72
2022/08/24 01:01:44;;;;;;;3.77;3.57;;;27.60;60.30;;;;;;5052512;28;20466;-72
2022/08/24 01:04:19;;;;;;;3.87;3.60;;;27.60;60.30;;;;;;5052165;28;20522;-69
2022/08/24 01:06:48;;;;;;;3.97;3.77;;;27.60;60.30;;;;;;5052252;28;21025;-72
2022/08/24 01:09:17;;;;;;;3.90;3.70;;;27.60;60.30;;;;;;5053420;28;20542;-69
2022/08/24 01:11:47;;;;;;;4.07;3.87;;;27.60;60.30;;;;;;5053259;28;20422;-69
2022/08/24 01:14:16;;;;;;;3.80;3.60;;;27.60;60.30;;;;;;5052727;28;20493;-68
2022/08/24 01:19:37;;;;;;;3.60;3.40;;;27.60;60.40;;;;;;5099301;28;20509;-69
2022/08/24 01:22:25;;;;;;;3.50;3.30;;;27.50;60.40;;;;;;5105413;28;20460;-71
2022/08/24 01:24:55;;;;;;;3.80;3.60;;;27.50;60.40;;;;;;5055935;28;20463;-69
2022/08/24 01:27:23;;;;;;;3.80;3.60;;;27.50;60.40;;;;;;5059601;28;20445;-69
2022/08/24 01:29:57;;;;;;;3.90;3.70;;;27.50;60.40;;;;;;5092051;28;20456;-69
2022/08/24 01:32:27;;;;;;;3.47;3.33;;;27.50;60.40;;;;;;5052982;28;20938;-69
2022/08/24 01:34:56;;;;;;;3.67;3.47;;;27.50;60.40;;;;;;5050760;28;20458;-69
2022/08/24 01:37:24;;;;;;;3.20;3.10;;;27.50;60.50;;;;;;5059211;28;20936;-69
2022/08/24 01:39:57;;;;;;;3.50;3.30;;;27.50;60.50;;;;;;5072712;28;20526;-71
2022/08/24 01:42:28;;;;;;;2.90;2.80;;;27.50;60.50;;;;;;5071423;28;20452;-69
2022/08/24 01:44:57;;;;;;;3.93;3.73;;;27.50;60.50;;;;;;5053867;28;20465;-68
2022/08/24 01:47:25;;;;;;;3.90;3.70;;;27.50;60.50;;;;;;5047666;28;20528;-70
2022/08/24 01:49:53;;;;;;;3.60;3.40;;;27.40;60.50;;;;;;5070738;28;20505;-69
2022/08/24 01:52:25;;;;;;;3.97;3.77;;;27.40;60.50;;;;;;5061418;28;20455;-69
2022/08/24 01:55:00;;;;;;;4.10;3.90;;;27.50;60.50;;;;;;5043617;28;20455;-69
2022/08/24 01:57:30;;;;;;;3.53;3.33;;;27.40;60.50;;;;;;5071058;28;20439;-69
2022/08/24 02:00:00;;;;;;;3.37;3.10;;;27.40;60.50;;;;;;5061039;28;20466;-71
2022/08/24 02:02:31;;;;;;;3.90;3.70;;;27.40;60.50;;;;;;5052075;28;20434;-69
2022/08/24 02:05:00;;;;;;;3.30;3.10;;;27.40;60.60;;;;;;5058598;28;20470;-69
2022/08/24 02:07:31;;;;;;;3.97;3.77;;;27.40;60.60;;;;;;5051196;28;20474;-69
2022/08/24 02:10:01;;;;;;;3.53;3.33;;;27.40;60.60;;;;;;5064600;28;20941;-70
2022/08/24 02:12:29;;;;;;;3.50;3.30;;;27.40;60.60;;;;;;5044960;28;20714;-70
2022/08/24 02:14:59;;;;;;;3.73;3.53;;;27.40;60.60;;;;;;5043768;28;20499;-74
2022/08/24 02:17:28;;;;;;;3.30;3.10;;;27.40;60.60;;;;;;5030690;28;20903;-70
2022/08/24 02:19:56;;;;;;;3.63;3.43;;;27.40;60.60;;;;;;5067153;28;20477;-69
2022/08/24 02:22:24;;;;;;;4.00;3.80;;;27.40;60.60;;;;;;5062353;28;20448;-75
2022/08/24 02:24:52;;;;;;;3.80;3.60;;;27.40;60.60;;;;;;5038769;28;20506;-69
2022/08/24 02:27:22;;;;;;;3.90;3.67;;;27.40;60.60;;;;;;5040455;28;20463;-69
2022/08/24 02:29:50;;;;;;;3.73;3.53;;;27.40;60.60;;;;;;5051130;28;20951;-69
2022/08/24 02:32:19;;;;;;;3.80;3.50;;;27.40;60.60;;;;;;5048142;28;20517;-69
2022/08/24 02:34:47;;;;;;;3.50;3.30;;;27.40;60.60;;;;;;5059590;28;20798;-69
2022/08/24 02:37:16;;;;;;;4.00;3.80;;;27.30;60.60;;;;;;5058356;28;20456;-69
2022/08/24 02:39:45;;;;;;;3.77;3.50;;;27.30;60.70;;;;;;5050670;28;20562;-69
2022/08/24 02:42:17;;;;;;;3.93;3.73;;;27.30;60.70;;;;;;5045476;28;20467;-69
2022/08/24 02:44:46;;;;;;;3.43;3.23;;;27.30;60.70;;;;;;5032341;28;20438;-69
2022/08/24 02:47:17;;;;;;;3.80;3.50;;;27.30;60.70;;;;;;5087575;28;20462;-69
2022/08/24 02:49:46;;;;;;;4.03;3.83;;;27.30;60.70;;;;;;5071413;28;20499;-69
2022/08/24 02:52:14;;;;;;;3.80;3.60;;;27.30;60.70;;;;;;5033028;28;20463;-69
2022/08/24 02:54:43;;;;;;;3.63;3.33;;;27.30;60.70;;;;;;5045971;28;20466;-69
2022/08/24 02:57:11;;;;;;;3.60;3.40;;;27.30;60.70;;;;;;5071411;28;20552;-69
2022/08/24 02:59:40;;;;;;;4.30;4.10;;;27.30;60.70;;;;;;5061096;28;20539;-70
2022/08/24 03:02:10;;;;;;;4.00;3.73;;;27.30;60.70;;;;;;5034195;28;20876;-69
2022/08/24 03:04:38;;;;;;;3.53;3.33;;;27.30;60.70;;;;;;5072024;28;20496;-71
2022/08/24 03:07:06;;;;;;;3.90;3.70;;;27.30;60.70;;;;;;5049207;28;20792;-68
2022/08/24 03:09:35;;;;;;;4.57;4.27;;;27.30;60.70;;;;;;5074194;28;20453;-69
2022/08/24 03:12:04;;;;;;;3.70;3.50;;;27.30;60.70;;;;;;5041822;28;20467;-69
2022/08/24 03:14:34;;;;;;;3.53;3.33;;;27.30;60.70;;;;;;5054194;28;20831;-69
2022/08/24 03:17:03;;;;;;;3.90;3.70;;;27.30;60.70;;;;;;5053713;28;20482;-69
2022/08/24 03:19:33;;;;;;;3.83;3.63;;;27.30;60.70;;;;;;5053916;28;21006;-70
2022/08/24 03:22:01;;;;;;;3.77;3.57;;;27.30;60.70;;;;;;5052319;28;20867;-69
2022/08/24 03:24:30;;;;;;;3.43;3.30;;;27.20;60.70;;;;;;5067254;28;20538;-71
2022/08/24 03:26:58;;;;;;;3.80;3.60;;;27.30;60.70;;;;;;5075098;28;20929;-69
2022/08/24 03:29:27;;;;;;;3.63;3.43;;;27.20;60.70;;;;;;5065392;28;20837;-69
2022/08/24 03:32:01;;;;;;;3.63;3.43;;;27.20;60.70;;;;;;5052502;28;20488;-69
2022/08/24 03:34:29;;;;;;;4.23;4.00;;;27.20;60.70;;;;;;5087593;28;20467;-69
2022/08/24 03:36:59;;;;;;;3.50;3.30;;;27.20;60.70;;;;;;5050318;28;20505;-72
2022/08/24 03:39:28;;;;;;;3.70;3.50;;;27.20;60.70;;;;;;5034030;28;20542;-69
2022/08/24 03:41:56;;;;;;;3.43;3.23;;;27.20;60.70;;;;;;5040247;28;20454;-74
2022/08/24 03:44:26;;;;;;;4.20;4.00;;;27.20;60.70;;;;;;5053032;28;20555;-69
2022/08/24 03:46:55;;;;;;;3.87;3.67;;;27.20;60.70;;;;;;5033518;28;20459;-69
2022/08/24 03:49:26;;;;;;;3.30;3.10;;;27.20;60.70;;;;;;5067228;28;20502;-69
2022/08/24 03:51:54;;;;;;;3.77;3.57;;;27.20;60.70;;;;;;5046650;28;20456;-73
2022/08/24 03:54:24;;;;;;;3.67;3.47;;;27.20;60.70;;;;;;5054879;28;20533;-69
2022/08/24 03:56:53;;;;;;;3.87;3.67;;;27.20;60.70;;;;;;5066318;28;20439;-69
2022/08/24 03:59:21;;;;;;;3.50;3.30;;;27.20;60.80;;;;;;5069374;28;20464;-69
2022/08/24 04:01:54;;;;;;;4.10;3.90;;;27.20;60.70;;;;;;5073157;28;20820;-69
2022/08/24 04:04:23;;;;;;;3.50;3.30;;;27.20;60.80;;;;;;5032616;28;20808;-69
2022/08/24 04:06:52;;;;;;;3.77;3.47;;;27.20;60.80;;;;;;5052362;28;20474;-68
2022/08/24 04:09:21;;;;;;;3.80;3.50;;;27.20;60.80;;;;;;5053257;28;20451;-69
2022/08/24 04:11:51;;;;;;;3.80;3.60;;;27.20;60.80;;;;;;5057179;28;20943;-69
2022/08/24 04:14:22;;;;;;;4.20;4.00;;;27.20;60.80;;;;;;5033189;28;20542;-68
2022/08/24 04:17:14;;;;;;;3.73;3.53;;;27.20;60.80;;;;;;5066092;28;20508;-71
2022/08/24 04:19:56;;;;;;;3.33;3.13;;;27.20;60.80;;;;;;5100143;28;20917;-69
2022/08/24 04:22:30;;;;;;;3.57;3.37;;;27.20;60.80;;;;;;5045787;28;20565;-72
2022/08/24 04:25:00;;;;;;;3.80;3.60;;;27.10;60.80;;;;;;5086348;28;20941;-69
2022/08/24 04:27:37;;;;;;;3.80;3.40;;;27.10;60.90;;;;;;5037784;28;20832;-69
2022/08/24 04:30:08;;;;;;;3.30;3.20;;;27.10;60.90;;;;;;5036853;28;20954;-68
2022/08/24 04:33:02;;;;;;;3.70;3.50;;;27.10;60.80;;;;;;5036164;28;20503;-69
2022/08/24 04:35:31;;;;;;;4.00;3.80;;;27.10;60.90;;;;;;5059615;28;20963;-69
2022/08/24 04:38:00;;;;;;;3.97;3.67;;;27.10;60.90;;;;;;5095051;28;20457;-70
2022/08/24 04:40:29;;;;;;;3.50;3.30;;;27.10;60.90;;;;;;5059836;28;20860;-69
2022/08/24 04:42:59;;;;;;;3.60;3.40;;;27.10;60.90;;;;;;5059059;28;20463;-69
2022/08/24 04:45:28;;;;;;;3.63;3.43;;;27.10;60.90;;;;;;5065861;28;20458;-69
2022/08/24 04:47:57;;;;;;;3.53;3.33;;;27.10;60.90;;;;;;5064855;28;20453;-69
2022/08/24 04:50:27;;;;;;;3.40;3.20;;;27.10;60.90;;;;;;5079184;28;20473;-70
2022/08/24 04:52:57;;;;;;;3.87;3.60;;;27.10;60.90;;;;;;5059906;28;20514;-68
2022/08/24 04:55:25;;;;;;;3.67;3.47;;;27.10;60.90;;;;;;5048016;28;20465;-69
2022/08/24 04:57:53;;;;;;;4.07;3.80;;;27.10;60.90;;;;;;5072520;28;20797;-69
2022/08/24 05:00:23;;;;;;;2.90;2.80;;;27.10;60.90;;;;;;5055779;28;20520;-69
2022/08/24 05:02:51;;;;;;;3.77;3.57;;;27.00;60.90;;;;;;5060157;28;20483;-71
2022/08/24 05:05:20;;;;;;;3.13;2.93;;;27.10;60.90;;;;;;5033668;28;20501;-71
2022/08/24 05:07:49;;;;;;;3.30;3.10;;;27.10;60.90;;;;;;5053698;28;20508;-74
2022/08/24 05:10:23;;;;;;;3.27;3.07;;;27.10;60.90;;;;;;5052063;28;20643;-69
2022/08/24 05:12:54;;;;;;;3.50;3.30;;;27.10;60.90;;;;;;5051539;28;20458;-69
2022/08/24 05:15:24;;;;;;;3.23;3.13;;;27.10;60.90;;;;;;5051938;28;20422;-69
2022/08/24 05:17:52;;;;;;;3.10;2.90;;;27.10;60.90;;;;;;5050418;28;20520;-72
2022/08/24 05:20:20;;;;;;;3.70;3.50;;;27.00;60.90;;;;;;5037373;28;20837;-69
2022/08/24 05:22:52;;;;;;;4.10;3.80;;;27.00;60.80;;;;;;5060210;28;20489;-69
2022/08/24 05:25:23;;;;;;;3.30;3.10;;;27.00;60.90;;;;;;5075047;28;20537;-69
2022/08/24 05:27:51;;;;;;;3.50;3.30;;;27.00;60.90;;;;;;5051932;28;20485;-70
2022/08/24 05:30:20;;;;;;;3.80;3.60;;;27.00;60.90;;;;;;5066573;28;20515;-69
2022/08/24 05:32:50;;;;;;;3.53;3.33;;;27.00;60.90;;;;;;5066308;28;20458;-69
2022/08/24 05:35:19;;;;;;;3.17;2.97;;;27.00;60.80;;;;;;5031936;28;20452;-69
2022/08/24 05:37:47;;;;;;;3.53;3.23;;;27.00;60.90;;;;;;5043546;28;21051;-69
2022/08/24 05:40:18;;;;;;;3.57;3.37;;;27.00;60.80;;;;;;5084951;28;20461;-69
2022/08/24 05:42:54;;;;;;;4.13;3.83;;;27.00;60.80;;;;;;5046142;28;20451;-69
2022/08/24 05:45:23;;;;;;;3.30;3.10;;;27.00;60.90;;;;;;5031593;28;20455;-69
2022/08/24 05:47:52;;;;;;;3.70;3.50;;;27.00;60.80;;;;;;5030250;28;20466;-72
2022/08/24 05:51:00;;;;;;;3.33;3.20;;;27.00;60.80;;;;;;5057544;28;20586;-69
2022/08/24 05:53:39;;;;;;;3.60;3.40;;;27.00;60.80;;;;;;5050038;28;20461;-69
2022/08/24 05:56:16;;;;;;;3.90;3.60;;;27.00;60.80;;;;;;5046740;28;20514;-71
2022/08/24 05:58:45;;;;;;;3.80;3.60;;;27.00;60.80;;;;;;5052408;28;20502;-70
2022/08/24 06:01:16;;;;;;;3.77;3.57;;;27.00;60.80;;;;;;5050347;28;20497;-70
2022/08/24 06:03:46;;;;;;;3.70;3.50;;;27.00;60.80;;;;;;5051893;28;20538;-69
2022/08/24 06:06:16;;;;;;;3.70;3.50;;;27.00;60.80;;;;;;5072391;28;20430;-69
2022/08/24 06:08:46;;;;;;;3.67;3.37;;;27.00;60.80;;;;;;5056378;28;20454;-69
2022/08/24 06:11:23;;;;;;;3.43;3.23;;;27.10;60.80;;;;;;5039338;28;20510;-69
2022/08/24 06:14:01;;;;;;;3.53;3.33;;;27.10;60.80;;;;;;5031148;28;21272;-69
2022/08/24 06:16:36;;;;;;;3.60;3.40;;;27.00;60.70;;;;;;5042419;28;20516;-69
2022/08/24 06:19:07;;;;;;;3.77;3.53;;;27.10;60.70;;;;;;5050465;28;20458;-69
2022/08/24 06:21:36;;;;;;;3.63;3.43;;;27.10;60.70;;;;;;5050533;28;20474;-70
2022/08/24 06:24:06;;;;;;;3.73;3.53;;;27.10;60.70;;;;;;5030827;28;21035;-69
2022/08/24 06:29:21;;;;;;;3.47;3.27;;;27.10;60.70;;;;;;5064352;28;20523;-70
2022/08/24 06:31:54;;;;;;;3.63;3.43;;;27.10;60.70;;;;;;5031148;28;20465;-68
2022/08/24 06:34:26;;;;;;;3.60;3.40;;;27.10;60.70;;;;;;5061980;28;20461;-68
2022/08/24 06:36:54;;;;;;;3.20;3.00;;;27.10;60.70;;;;;;5048599;28;20458;-68
2022/08/24 06:39:25;;;;;;;3.90;3.70;;;27.10;60.60;;;;;;5063744;28;20486;-68
2022/08/24 06:41:55;;;;;;;3.50;3.30;;;27.10;60.60;;;;;;5032491;28;20529;-68
2022/08/24 06:44:37;;;;;;;3.53;3.33;;;27.10;60.60;;;;;;5040824;28;20458;-69
2022/08/24 06:47:18;;;;;;;3.43;3.23;;;27.10;60.50;;;;;;5076719;28;20456;-68
2022/08/24 06:49:50;;;;;;;3.87;3.67;;;27.10;60.50;;;;;;5100774;28;20456;-70
2022/08/24 06:52:18;;;;;;;3.60;3.40;;;27.20;60.50;;;;;;5055463;28;20462;-70
2022/08/24 06:54:46;;;;;;;3.47;3.27;;;27.20;60.40;;;;;;5035077;28;20546;-68
2022/08/24 06:57:15;;;;;;;3.73;3.53;;;27.20;60.40;;;;;;5064900;28;20938;-69
2022/08/24 06:59:43;;;;;;;3.90;3.70;;;27.20;60.40;;;;;;5050084;28;20967;-69
2022/08/24 07:02:14;;;;;;;3.87;3.67;;;27.20;60.40;;;;;;5047084;28;20495;-71
2022/08/24 07:04:43;;;;;;;3.60;3.40;;;27.20;60.40;;;;;;5049631;28;20482;-70
2022/08/24 07:07:31;;;;;;;3.53;3.33;;;27.20;60.40;;;;;;5051923;28;20928;-69
2022/08/24 07:10:01;;;;;;;3.23;3.03;;;27.20;60.40;;;;;;5050193;28;20528;-69
2022/08/24 07:12:29;;;;;;;3.60;3.40;;;27.20;60.40;;;;;;5050441;28;20912;-69
2022/08/24 07:14:57;;;;;;;2.90;2.80;;;27.20;60.30;;;;;;5051874;28;20443;-71
2022/08/24 07:17:26;;;;;;;3.77;3.47;;;27.20;60.30;;;;;;5036772;28;20479;-68
2022/08/24 07:19:55;;;;;;;3.73;3.53;;;27.20;60.30;;;;;;5083606;28;20802;-69
2022/08/24 07:22:51;;;;;;;4.00;3.70;;;27.20;60.30;;;;;;5049848;28;20471;-73
2022/08/24 07:25:19;;;;;;;2.93;2.73;;;27.20;60.30;;;;;;5049072;28;20469;-69
2022/08/24 07:27:47;;;;;;;3.00;2.80;;;27.20;60.30;;;;;;5058141;28;20450;-73
2022/08/24 07:30:17;;;;;;;3.40;3.30;;;27.20;60.30;;;;;;5038237;28;20452;-69
2022/08/24 07:32:56;;;;;;;3.00;2.90;;;27.20;60.30;;;;;;5078315;28;20468;-69
2022/08/24 07:35:27;;;;;;;3.90;3.70;;;27.30;60.30;;;;;;5070001;28;20485;-68
2022/08/24 07:37:56;;;;;;;3.33;3.13;;;27.20;60.30;;;;;;5070151;28;20506;-69
2022/08/24 07:40:26;;;;;;;3.63;3.43;;;27.30;60.20;;;;;;5069928;28;20449;-69
2022/08/24 07:42:56;;;;;;;3.23;3.07;;;27.30;60.20;;;;;;5046991;28;20473;-68
2022/08/24 07:45:29;;;;;;;3.50;3.30;;;27.30;60.20;;;;;;5039813;28;20904;-68
2022/08/24 07:47:58;;;;;;;3.37;3.17;;;27.30;60.20;;;;;;5034383;28;20463;-70
2022/08/24 07:50:37;;;;;;;3.60;3.40;;;27.30;60.20;;;;;;5066937;28;20620;-68
2022/08/24 07:53:07;;;;;;;3.37;3.17;;;27.30;60.20;;;;;;5043823;28;20449;-68
2022/08/24 07:55:42;;;;;;;3.07;2.97;;;27.30;60.20;;;;;;5046104;28;20439;-68
2022/08/24 07:58:13;;;;;;;3.53;3.33;;;27.30;60.20;;;;;;5069804;28;20450;-72
2022/08/24 08:00:46;;;;;;;3.33;3.03;;;27.30;60.20;;;;;;5053450;28;20473;-71
2022/08/24 08:03:14;;;;;;;3.90;3.70;;;27.30;60.20;;;;;;5036044;28;20589;-68
2022/08/24 08:05:44;;;;;;;3.73;3.47;;;27.30;60.20;;;;;;5066716;28;20455;-68
2022/08/24 08:08:14;;;;;;;3.80;3.60;;;27.30;60.20;;;;;;5060026;28;20518;-70
2022/08/24 08:10:42;;;;;;;3.23;3.03;;;27.30;60.20;;;;;;5071757;28;20465;-70
2022/08/24 08:13:10;;;;;;;3.60;3.40;;;27.30;60.20;;;;;;5044531;28;20455;-69
2022/08/24 08:15:39;;;;;;;3.10;3.00;;;27.30;60.20;;;;;;5034601;28;20821;-68
2022/08/24 08:18:10;;;;;;;3.70;3.50;;;27.30;60.20;;;;;;5052099;28;20581;-69
2022/08/24 08:20:41;;;;;;;3.80;3.60;;;27.30;60.20;;;;;;5086993;28;20493;-69
2022/08/24 08:26:34;;;;;;;3.40;3.20;;;27.30;60.20;;;;;;5045517;28;20443;-69
2022/08/24 08:29:06;;;;;;;3.30;3.10;;;27.30;60.20;;;;;;5071775;28;20966;-68
2022/08/24 08:31:37;;;;;;;4.10;3.90;;;27.30;60.20;;;;;;5072835;28;20480;-68
2022/08/24 08:34:07;;;;;;;3.00;2.90;;;27.30;60.20;;;;;;5066688;28;20463;-69
2022/08/24 08:36:39;;;;;;;3.67;3.47;;;27.30;60.10;;;;;;5072548;28;20461;-68
2022/08/24 08:39:09;;;;;;;3.40;3.17;;;27.30;60.10;;;;;;5073091;28;20462;-69
2022/08/24 08:42:09;;;;;;;3.40;3.20;;;27.30;60.10;;;;;;5072586;28;20460;-69
2022/08/24 08:44:52;;;;;;;3.30;3.20;;;27.30;60.10;;;;;;5078837;28;20509;-69
2022/08/24 08:47:51;;;;;;;3.10;3.00;;;27.30;60.10;;;;;;5067410;28;20457;-69
2022/08/24 08:50:29;;;;;;;3.50;3.30;;;27.30;60.10;;;;;;5052871;28;20469;-69
2022/08/24 08:53:37;;;;;;;3.83;3.63;;;27.30;60.10;;;;;;5077566;28;20814;-68
2022/08/24 08:56:19;;;;;;;3.67;3.47;;;27.30;60.10;;;;;;5031564;28;20459;-71
2022/08/24 08:59:02;;;;;;;2.90;2.80;;;27.30;60.10;;;;;;5032977;28;20449;-68
2022/08/24 09:01:55;;;;;;;3.30;3.20;;;27.30;60.10;;;;;;5078448;28;20520;-69
2022/08/24 09:05:27;;;;;;;3.37;3.17;;;27.30;60.10;;;;;;5046475;28;20477;-69
2022/08/24 09:08:07;;;;;;;3.43;3.23;;;27.30;60.10;;;;;;5042351;28;20548;-69
2022/08/24 09:10:55;;;;;;;3.93;3.63;;;27.30;60.10;;;;;;5064392;28;20473;-69
2022/08/24 09:13:45;;;;;;;3.67;3.47;;;27.30;60.10;;;;;;5052136;28;20549;-69
2022/08/24 09:16:46;;;;;;;3.60;3.40;;;27.30;60.10;;;;;;5058822;28;20547;-69
2022/08/24 09:19:38;;;;;;;3.60;3.40;;;27.30;60.10;;;;;;5051591;28;20450;-69
2022/08/24 09:22:11;;;;;;;3.60;3.40;;;27.40;60.10;;;;;;5065973;28;20449;-74
2022/08/24 09:24:59;;;;;;;2.90;2.70;;;27.40;60.10;;;;;;5032183;28;20579;-68
2022/08/24 09:28:00;;;;;;;3.60;3.40;;;27.40;60.10;;;;;;5064829;28;20538;-71
2022/08/24 09:30:41;;;;;;;3.77;3.57;;;27.30;60.10;;;;;;5047595;28;20499;-69
2022/08/24 09:33:20;;;;;;;3.57;3.37;;;27.40;60.10;;;;;;5046813;28;20459;-68
2022/08/24 09:36:13;;;;;;;3.70;3.50;;;27.40;60.10;;;;;;5033322;28;20466;-70
2022/08/24 09:38:59;;;;;;;3.20;3.00;;;27.40;60.00;;;;;;5058317;28;20457;-69
2022/08/24 09:41:56;;;;;;;2.73;2.63;;;27.40;60.00;;;;;;5061553;28;20440;-69
2022/08/24 09:45:12;;;;;;;3.80;3.60;;;27.40;60.00;;;;;;5050718;28;20497;-70
2022/08/24 09:48:15;;;;;;;3.03;2.93;;;27.40;60.00;;;;;;5026152;28;20454;-68
2022/08/24 09:51:29;;;;;;;3.17;3.00;;;27.40;60.00;;;;;;5029403;28;20514;-70
2022/08/24 09:54:22;;;;;;;3.73;3.53;;;27.40;60.00;;;;;;5046805;28;20471;-69
2022/08/24 09:57:02;;;;;;;3.60;3.40;;;27.40;60.00;;;;;;5052315;28;20443;-68
2022/08/24 09:59:58;;;;;;;3.27;3.07;;;27.40;60.00;;;;;;5052151;28;20925;-71
2022/08/24 10:02:40;;;;;;;2.97;2.77;;;27.40;60.00;;;;;;5066643;28;20931;-68
2022/08/24 10:05:20;;;;;;;3.23;3.13;;;27.40;60.00;;;;;;5066511;28;20852;-72
2022/08/24 10:07:58;;;;;;;3.00;2.90;;;27.40;60.00;;;;;;5072093;28;20419;-69
2022/08/24 10:10:39;;;;;;;3.20;3.07;;;27.40;60.00;;;;;;5070358;28;20890;-68
2022/08/24 10:13:20;;;;;;;3.40;3.20;;;27.40;60.00;;;;;;5049859;28;20457;-69
2022/08/24 10:16:01;;;;;;;3.10;3.00;;;27.40;59.90;;;;;;5032165;28;20534;-70
2022/08/24 10:18:42;;;;;;;3.10;2.93;;;27.40;59.90;;;;;;5058796;28;20509;-69
2022/08/24 10:21:35;;;;;;;3.23;3.03;;;27.50;59.90;;;;;;5072721;28;20733;-69
2022/08/24 10:24:35;;;;;;;3.10;3.00;;;27.50;59.90;;;;;;5050345;28;20818;-71
2022/08/24 10:27:21;;;;;;;3.00;2.80;;;27.50;60.00;;;;;;5051993;28;20457;-69
2022/08/24 10:30:10;;;;;;;3.40;3.20;;;27.50;60.00;;;;;;5067734;28;20926;-70
2022/08/24 10:32:52;;;;;;;3.00;2.90;;;27.50;60.00;;;;;;5049880;28;20979;-69
2022/08/24 10:35:27;;;;;;;3.00;2.80;;;27.50;60.00;;;;;;5059023;28;20496;-69
2022/08/24 10:41:58;;;;;;;2.80;2.70;;;27.50;60.00;;;;;;5055500;28;20513;-71
2022/08/24 10:44:48;;;;;;;3.30;3.10;;;27.50;60.00;;;;;;5059079;28;20464;-68
2022/08/24 10:47:30;;;;;;;3.20;3.00;;;27.50;60.00;;;;;;5071714;28;20431;-69
2022/08/24 10:50:31;;;;;;;3.33;3.13;;;27.50;59.90;;;;;;5071482;28;20435;-69
2022/08/24 10:53:23;;;;;;;2.97;2.87;;;27.60;59.90;;;;;;5042643;28;20480;-69
2022/08/24 10:56:13;;;;;;;3.20;3.00;;;27.60;59.90;;;;;;5031993;28;20494;-68
2022/08/24 10:59:02;;;;;;;3.10;3.00;;;27.60;59.80;;;;;;5043723;28;20519;-68
2022/08/24 11:01:33;;;;;;;3.10;3.00;;;27.60;59.80;;;;;;5070996;28;20438;-69
2022/08/24 11:04:06;;;;;;;2.83;2.70;;;27.60;59.80;;;;;;5057174;28;20819;-68
2022/08/24 11:06:38;;;;;;;3.33;3.13;;;27.70;59.70;;;;;;5032571;28;20444;-70
2022/08/24 11:09:09;;;;;;;2.90;2.70;;;27.60;59.70;;;;;;5056989;28;20455;-69
2022/08/24 11:11:43;;;;;;;2.60;2.50;;;27.70;59.70;;;;;;5055466;28;20473;-69
2022/08/24 11:14:27;;;;;;;3.00;2.80;;;27.70;59.60;;;;;;5051558;28;20485;-69
2022/08/24 11:17:15;;;;;;;3.00;2.83;;;27.70;59.60;;;;;;5050606;28;20469;-69
2022/08/24 11:19:44;;;;;;;3.33;3.13;;;27.70;59.60;;;;;;5052027;28;20814;-71
2022/08/24 11:22:27;;;;;;;2.80;2.70;;;27.70;59.60;;;;;;5050529;28;20521;-68
2022/08/24 11:24:59;;;;;;;3.30;3.10;;;27.80;59.50;;;;;;5035439;28;20971;-68
2022/08/24 11:27:33;;;;;;;3.40;3.20;;;27.80;59.50;;;;;;5036108;28;20823;-69
2022/08/24 11:30:09;;;;;;;3.43;3.23;;;27.80;59.50;;;;;;5058417;28;20460;-69
2022/08/24 11:32:42;;;;;;;2.70;2.60;;;27.80;59.40;;;;;;5054784;28;20557;-71
2022/08/24 11:35:22;;;;;;;2.97;2.83;;;27.80;59.40;;;;;;5054792;28;20982;-68
2022/08/24 11:37:53;;;;;;;2.87;2.77;;;27.80;59.40;;;;;;5051669;28;20436;-68
2022/08/24 11:40:28;;;;;;;2.87;2.77;;;27.80;59.30;;;;;;5067335;28;20462;-69
2022/08/24 11:43:27;;;;;;;2.83;2.73;;;27.90;59.30;;;;;;5051532;28;20477;-68
2022/08/24 11:46:25;;;;;;;2.90;2.70;;;27.90;59.30;;;;;;5055313;28;20513;-68
2022/08/24 11:49:07;;;;;;;2.70;2.60;;;27.90;59.20;;;;;;5050988;28;20685;-68
2022/08/24 11:51:46;;;;;;;2.70;2.50;;;27.90;59.30;;;;;;5054871;28;20484;-69
2022/08/24 11:54:24;;;;;;;2.83;2.73;;;27.90;59.20;;;;;;5049636;28;20448;-69
2022/08/24 11:57:07;;;;;;;2.50;2.40;;;27.90;59.20;;;;;;5054866;28;20928;-69
2022/08/24 11:59:45;;;;;;;3.00;2.80;;;28.00;59.10;;;;;;5040333;28;20559;-69
2022/08/24 12:02:23;;;;;;;3.10;3.00;;;28.00;59.10;;;;;;5062904;28;20445;-68
2022/08/24 12:04:58;;;;;;;3.07;2.87;;;28.00;59.10;;;;;;5066802;28;20482;-68
2022/08/24 12:07:45;;;;;;;3.10;3.00;;;28.00;59.10;;;;;;5056785;28;20476;-68
2022/08/24 12:10:31;;;;;;;2.80;2.70;;;28.00;59.00;;;;;;5039502;28;20804;-70
2022/08/24 12:13:06;;;;;;;2.50;2.40;;;28.10;59.00;;;;;;5048351;28;20487;-68
2022/08/24 12:15:42;;;;;;;3.13;2.93;;;28.00;59.10;;;;;;5054701;28;20475;-72
2022/08/24 12:18:23;;;;;;;2.50;2.40;;;28.10;59.00;;;;;;5085374;28;20565;-69
2022/08/24 12:20:54;;;;;;;3.10;2.90;;;28.00;59.10;;;;;;5038500;28;20923;-68
2022/08/24 12:23:31;;;;;;;2.90;2.70;;;28.00;59.00;;;;;;5054724;28;20427;-70
2022/08/24 12:26:03;;;;;;;2.80;2.70;;;28.10;59.00;;;;;;5034049;28;20517;-69
2022/08/24 12:28:49;;;;;;;2.67;2.53;;;28.10;58.90;;;;;;5035639;28;20963;-68
2022/08/24 12:31:31;;;;;;;2.60;2.50;;;28.00;59.10;;;;;;5033043;28;20446;-71
2022/08/24 12:34:07;;;;;;;2.50;2.40;;;28.00;59.10;;;;;;5073789;28;20443;-69
2022/08/24 12:36:44;;;;;;;2.83;2.73;;;28.00;59.20;;;;;;5046423;28;20442;-69
2022/08/24 12:39:18;;;;;;;3.37;3.17;;;28.00;59.20;;;;;;5073749;28;20480;-68
2022/08/24 12:42:03;;;;;;;2.57;2.47;;;28.00;59.20;;;;;;5054024;28;20512;-69
2022/08/24 12:44:42;;;;;;;3.00;2.80;;;28.00;59.10;;;;;;5046399;28;20873;-69
2022/08/24 12:47:11;;;;;;;2.70;2.60;;;28.00;59.20;;;;;;5063155;28;20451;-68
2022/08/24 12:49:48;;;;;;;2.70;2.60;;;28.00;59.10;;;;;;5052023;28;20925;-69
2022/08/24 12:53:08;;;;;;;2.63;2.53;;;28.00;59.20;;;;;;5059301;28;20789;-68
2022/08/24 12:55:57;;;;;;;2.70;2.50;;;28.10;59.00;;;;;;4972719;28;20476;-68
2022/08/24 12:58:46;;;;;;;3.20;3.00;;;28.10;59.10;;;;;;4963576;28;20490;-71
2022/08/24 13:01:24;;;;;;;3.10;2.90;;;28.10;59.10;;;;;;5048635;28;20460;-68
2022/08/24 13:04:16;;;;;;;3.23;3.03;;;28.10;59.10;;;;;;5053042;28;20472;-69
2022/08/24 13:06:52;;;;;;;3.20;3.00;;;28.10;59.10;;;;;;5040220;28;20498;-69
2022/08/24 13:09:31;;;;;;;3.07;2.90;;;28.10;59.00;;;;;;5041295;28;20463;-70
2022/08/24 13:12:50;;;;;;;3.07;2.97;;;28.10;59.00;;;;;;5051660;28;20909;-69
2022/08/24 13:15:48;;;;;;;2.50;2.40;;;28.10;59.00;;;;;;5053363;28;20473;-69
2022/08/24 13:18:49;;;;;;;2.90;2.70;;;28.10;59.10;;;;;;5070361;28;20927;-68
2022/08/24 13:21:57;;;;;;;2.57;2.47;;;28.10;59.00;;;;;;5033298;28;20446;-68
2022/08/24 13:25:02;;;;;;;2.63;2.43;;;28.10;59.00;;;;;;5023474;28;20529;-69
2022/08/24 13:28:12;;;;;;;2.73;2.53;;;28.10;59.00;;;;;;5073523;28;20434;-69
2022/08/24 13:31:10;;;;;;;2.60;2.50;;;28.10;58.90;;;;;;5047875;28;21025;-68
2022/08/24 13:33:41;;;;;;;2.57;2.47;;;28.10;58.90;;;;;;5046575;28;20447;-69
2022/08/24 13:36:46;;;;;;;3.00;2.80;;;28.10;59.00;;;;;;5031579;28;20446;-69
2022/08/24 13:39:39;;;;;;;2.50;2.40;;;28.10;58.90;;;;;;5055772;28;20464;-72
2022/08/24 13:42:20;;;;;;;2.80;2.70;;;28.20;58.90;;;;;;5031261;28;20792;-68
2022/08/24 13:45:23;;;;;;;2.83;2.70;;;28.10;58.90;;;;;;5050676;28;20449;-68
2022/08/24 13:48:18;;;;;;;2.87;2.67;;;28.20;58.80;;;;;;5053042;28;20456;-71